createdAt,value
2019-01-15T00:01:59.635Z,4.70
2019-01-15T00:04:30.880Z,4.87
2019-01-15T00:07:02.129Z,4.53
2019-01-15T00:09:33.316Z,4.20
2019-01-15T00:12:07.954Z,5.37
2019-01-15T00:14:37.452Z,4.70
2019-01-15T00:17:08.617Z,3.90
2019-01-15T00:19:39.832Z,4.37
2019-01-15T00:22:11.032Z,4.20
2019-01-15T00:24:42.206Z,4.43
2019-01-15T00:27:13.388Z,4.97
2019-01-15T00:29:44.687Z,4.63
2019-01-15T00:32:15.912Z,4.40
2019-01-15T00:34:47.253Z,5.00
2019-01-15T00:37:18.460Z,4.83
2019-01-15T00:39:49.602Z,4.60
2019-01-15T00:42:20.805Z,4.27
2019-01-15T00:44:52.011Z,4.27
2019-01-15T00:47:23.311Z,4.70
2019-01-15T00:49:54.468Z,4.20
2019-01-15T00:52:25.656Z,4.50
2019-01-15T00:54:56.826Z,4.60
2019-01-15T00:57:28.119Z,4.50
2019-01-15T00:59:59.282Z,4.47
2019-01-15T01:02:30.473Z,5.23
2019-01-15T01:05:01.641Z,4.50
2019-01-15T01:07:32.908Z,5.40
2019-01-15T01:10:04.838Z,4.37
2019-01-15T01:12:36.054Z,4.73
2019-01-15T01:15:08.784Z,4.70
2019-01-15T01:17:41.027Z,4.63
2019-01-15T01:20:15.832Z,4.00
2019-01-15T01:22:47.035Z,3.97
2019-01-15T01:25:18.250Z,3.90
2019-01-15T01:27:49.496Z,4.40
2019-01-15T01:30:22.539Z,5.13
2019-01-15T01:32:53.780Z,4.77
2019-01-15T01:35:24.953Z,4.47
2019-01-15T01:37:56.143Z,4.70
2019-01-15T01:40:27.431Z,4.47
2019-01-15T01:42:58.557Z,4.33
2019-01-15T01:45:29.872Z,5.23
2019-01-15T01:48:01.050Z,4.50
2019-01-15T01:50:32.320Z,4.50
2019-01-15T01:53:03.503Z,4.30
2019-01-15T01:55:34.676Z,5.07
2019-01-15T01:58:05.866Z,4.60
2019-01-15T02:00:37.030Z,4.50
2019-01-15T02:03:08.330Z,4.67
2019-01-15T02:05:39.551Z,4.50
2019-01-15T02:08:10.865Z,4.70
2019-01-15T02:10:42.083Z,4.20
2019-01-15T02:13:13.347Z,4.53
2019-01-15T02:15:44.552Z,5.43
2019-01-15T02:18:15.812Z,4.13
2019-01-15T02:20:47.025Z,5.30
2019-01-15T02:23:18.219Z,4.23
2019-01-15T02:25:49.425Z,4.10
2019-01-15T02:28:20.581Z,4.67
2019-01-15T02:30:51.862Z,4.73
2019-01-15T02:33:23.061Z,4.83
2019-01-15T02:35:54.274Z,4.27
2019-01-15T02:38:25.481Z,3.90
2019-01-15T02:40:56.682Z,4.33
2019-01-15T02:43:27.842Z,4.30
2019-01-15T02:45:59.002Z,4.50
2019-01-15T02:48:30.204Z,4.53
2019-01-15T02:51:01.397Z,4.60
2019-01-15T02:53:32.673Z,4.27
2019-01-15T02:56:04.054Z,4.50
2019-01-15T02:58:35.859Z,4.70
2019-01-15T03:01:07.148Z,4.93
2019-01-15T03:03:38.360Z,4.27
2019-01-15T03:06:09.536Z,4.67
2019-01-15T03:08:40.798Z,5.77
2019-01-15T03:11:12.085Z,4.63
2019-01-15T03:13:43.535Z,3.80
2019-01-15T03:16:14.788Z,4.53
2019-01-15T03:18:47.692Z,4.53
2019-01-15T03:21:19.010Z,4.40
2019-01-15T03:23:50.215Z,4.40
2019-01-15T03:26:21.356Z,4.60
2019-01-15T03:28:52.585Z,4.90
2019-01-15T03:31:23.910Z,4.60
2019-01-15T03:33:55.095Z,4.57
2019-01-15T03:36:26.366Z,4.37
2019-01-15T03:38:57.630Z,4.70
2019-01-15T03:41:28.833Z,5.10
2019-01-15T03:44:00.114Z,4.73
2019-01-15T03:46:31.321Z,5.43
2019-01-15T03:49:02.459Z,4.60
2019-01-15T03:51:33.712Z,4.73
2019-01-15T03:54:04.880Z,4.37
2019-01-15T03:56:36.078Z,4.53
2019-01-15T03:59:07.306Z,4.50
2019-01-15T04:01:38.440Z,4.50
2019-01-15T04:04:09.661Z,4.50
2019-01-15T04:06:40.829Z,5.10
2019-01-15T04:09:12.041Z,4.07
2019-01-15T04:11:43.186Z,4.67
2019-01-15T04:14:14.377Z,4.30
2019-01-15T04:16:45.582Z,4.30
2019-01-15T04:19:16.748Z,4.50
2019-01-15T04:21:47.967Z,4.50
2019-01-15T04:24:19.136Z,5.13
2019-01-15T04:26:50.418Z,4.70
2019-01-15T04:29:21.632Z,4.03
2019-01-15T04:31:52.800Z,5.47
2019-01-15T04:34:24.069Z,4.40
2019-01-15T04:36:55.284Z,4.63
2019-01-15T04:39:26.553Z,4.30
2019-01-15T04:41:57.718Z,4.50
2019-01-15T04:44:28.928Z,3.73
2019-01-15T04:47:00.155Z,3.93
2019-01-15T04:49:31.320Z,4.13
2019-01-15T04:52:02.511Z,4.70
2019-01-15T04:54:33.773Z,4.33
2019-01-15T04:57:05.319Z,3.70
2019-01-15T04:59:37.102Z,4.63
2019-01-15T05:02:08.300Z,3.53
2019-01-15T05:04:39.496Z,4.23
2019-01-15T05:07:10.698Z,3.83
2019-01-15T05:09:41.889Z,4.33
2019-01-15T05:12:13.079Z,4.27
2019-01-15T05:14:44.317Z,4.67
2019-01-15T05:17:15.695Z,3.80
2019-01-15T05:19:46.962Z,3.83
2019-01-15T05:22:18.121Z,4.60
2019-01-15T05:24:49.325Z,4.17
2019-01-15T05:27:20.794Z,4.50
2019-01-15T05:29:52.075Z,5.17
2019-01-15T05:32:23.305Z,4.00
2019-01-15T05:34:54.532Z,4.67
2019-01-15T05:37:25.796Z,4.93
2019-01-15T05:39:56.936Z,4.43
2019-01-15T05:42:28.171Z,4.30
2019-01-15T05:45:00.052Z,4.90
2019-01-15T05:47:31.723Z,4.07
2019-01-15T05:50:02.968Z,5.80
2019-01-15T05:52:34.170Z,4.00
2019-01-15T05:55:05.923Z,4.40
2019-01-15T05:57:37.118Z,4.20
2019-01-15T06:00:09.061Z,4.23
2019-01-15T06:02:40.186Z,4.40
2019-01-15T06:05:11.654Z,4.10
2019-01-15T06:07:43.172Z,4.83
2019-01-15T06:10:14.391Z,4.43
2019-01-15T06:12:45.583Z,4.10
2019-01-15T06:15:16.946Z,4.10
2019-01-15T06:17:48.142Z,4.77
2019-01-15T06:20:19.515Z,3.93
2019-01-15T06:22:50.659Z,4.57
2019-01-15T06:25:22.010Z,4.40
2019-01-15T06:27:53.176Z,4.13
2019-01-15T06:30:24.480Z,4.80
2019-01-15T06:32:55.624Z,4.33
2019-01-15T06:35:26.831Z,4.10
2019-01-15T06:37:59.079Z,4.13
2019-01-15T06:40:30.238Z,4.00
2019-01-15T06:43:01.509Z,4.93
2019-01-15T06:45:32.843Z,5.27
2019-01-15T06:48:04.206Z,5.10
2019-01-15T06:50:35.349Z,4.37
2019-01-15T06:53:06.587Z,3.60
2019-01-15T06:55:37.672Z,4.63
2019-01-15T06:58:08.949Z,4.33
2019-01-15T07:00:40.103Z,4.40
2019-01-15T07:03:11.281Z,3.77
2019-01-15T07:05:42.601Z,3.87
2019-01-15T07:08:13.761Z,3.60
2019-01-15T07:10:44.938Z,4.17
2019-01-15T07:13:16.190Z,4.10
2019-01-15T07:15:47.589Z,4.30
2019-01-15T07:18:18.786Z,4.60
2019-01-15T07:20:50.046Z,4.33
2019-01-15T07:23:21.338Z,3.63
2019-01-15T07:25:53.682Z,3.70
2019-01-15T07:28:24.866Z,4.40
2019-01-15T07:30:58.668Z,4.30
2019-01-15T07:33:31.221Z,4.10
2019-01-15T07:36:02.407Z,4.37
2019-01-15T07:38:33.570Z,4.90
2019-01-15T07:41:04.724Z,5.00
2019-01-15T07:43:35.901Z,4.90
2019-01-15T07:46:07.110Z,4.00
2019-01-15T07:48:38.315Z,4.50
2019-01-15T07:51:09.482Z,4.33
2019-01-15T07:53:40.700Z,4.60
2019-01-15T07:56:11.991Z,5.20
2019-01-15T07:58:43.142Z,4.90
2019-01-15T08:01:15.590Z,5.13
2019-01-15T08:03:46.823Z,5.83
2019-01-15T08:06:17.996Z,5.60
2019-01-15T08:08:49.153Z,5.37
2019-01-15T08:11:20.402Z,5.97
2019-01-15T08:13:51.549Z,6.63
2019-01-15T08:16:22.716Z,6.17
2019-01-15T08:18:54.223Z,5.07
2019-01-15T08:21:25.402Z,6.80
2019-01-15T08:23:56.615Z,4.63
2019-01-15T08:26:27.767Z,6.90
2019-01-15T08:28:59.059Z,6.03
2019-01-15T08:31:30.390Z,6.20
2019-01-15T08:34:01.557Z,6.27
2019-01-15T08:36:32.774Z,6.73
2019-01-15T08:39:05.592Z,5.30
2019-01-15T08:41:37.091Z,6.70
2019-01-15T08:44:08.289Z,7.17
2019-01-15T08:46:39.455Z,7.67
2019-01-15T08:49:10.618Z,7.10
2019-01-15T08:51:43.280Z,8.70
2019-01-15T08:54:15.144Z,7.00
2019-01-15T08:56:46.331Z,7.40
2019-01-15T08:59:17.498Z,7.83
2019-01-15T09:01:48.691Z,7.10
2019-01-15T09:04:19.863Z,5.87
2019-01-15T09:06:51.043Z,7.20
2019-01-15T09:09:22.254Z,7.27
2019-01-15T09:11:53.397Z,7.27
2019-01-15T09:14:26.960Z,7.67
2019-01-15T09:16:58.659Z,6.70
2019-01-15T09:19:29.816Z,6.90
2019-01-15T09:22:01.040Z,8.27
2019-01-15T09:24:32.356Z,7.23
2019-01-15T09:27:04.125Z,7.63
2019-01-15T09:29:35.324Z,7.30
2019-01-15T09:32:06.506Z,6.77
2019-01-15T09:34:37.710Z,7.07
2019-01-15T09:37:10.514Z,7.60
2019-01-15T09:39:41.876Z,7.63
2019-01-15T09:42:13.196Z,7.43
2019-01-15T09:44:44.678Z,8.40
2019-01-15T09:47:17.124Z,8.33
2019-01-15T09:49:48.384Z,8.10
2019-01-15T09:52:20.601Z,7.17
2019-01-15T09:54:52.061Z,8.50
2019-01-15T09:57:23.288Z,8.63
2019-01-15T09:59:54.460Z,7.70
2019-01-15T10:02:25.673Z,9.07
2019-01-15T10:04:56.906Z,9.03
2019-01-15T10:07:28.087Z,8.97
2019-01-15T10:09:59.234Z,8.37
2019-01-15T10:12:30.361Z,8.60
2019-01-15T10:15:01.552Z,8.13
2019-01-15T10:17:32.671Z,9.47
2019-01-15T10:20:04.606Z,6.90
2019-01-15T10:22:35.768Z,8.67
2019-01-15T10:25:08.667Z,9.00
2019-01-15T10:27:41.253Z,7.67
2019-01-15T10:30:18.204Z,9.43
2019-01-15T10:33:20.803Z,7.93
2019-01-15T10:35:54.237Z,10.37
2019-01-15T10:38:26.787Z,9.33
2019-01-15T10:40:58.674Z,9.50
2019-01-15T10:43:31.489Z,9.00
2019-01-15T10:46:03.808Z,10.80
2019-01-15T10:48:35.080Z,9.90
2019-01-15T10:51:06.327Z,10.77
2019-01-15T10:53:37.477Z,10.30
2019-01-15T10:56:08.691Z,11.60
2019-01-15T10:58:39.931Z,10.67
2019-01-15T11:01:11.101Z,10.80
2019-01-15T11:03:42.363Z,9.27
2019-01-15T11:06:13.643Z,12.00
2019-01-15T11:08:44.813Z,11.10
2019-01-15T11:11:17.072Z,8.50
2019-01-15T11:13:48.184Z,11.23
2019-01-15T11:16:20.136Z,12.03
2019-01-15T11:18:51.331Z,11.23
2019-01-15T11:21:22.532Z,9.60
2019-01-15T11:23:53.679Z,11.53
2019-01-15T11:26:24.866Z,10.70
2019-01-15T11:28:56.009Z,12.70
2019-01-15T11:31:27.161Z,13.37
2019-01-15T11:33:58.399Z,12.50
2019-01-15T11:36:29.563Z,12.47
2019-01-15T11:39:00.797Z,13.07
2019-01-15T11:41:32.782Z,14.37
2019-01-15T11:44:03.961Z,11.23
2019-01-15T11:46:36.066Z,11.93
2019-01-15T11:49:07.330Z,13.20
2019-01-15T11:51:38.480Z,12.53
2019-01-15T11:54:09.676Z,13.23
2019-01-15T11:56:41.058Z,14.27
2019-01-15T11:59:12.571Z,11.37
2019-01-15T12:02:03.855Z,13.87
2019-01-15T12:05:12.699Z,13.73
2019-01-15T12:08:06.031Z,13.77
2019-01-15T12:11:11.647Z,14.40
2019-01-15T12:14:00.480Z,12.23
2019-01-15T12:16:50.704Z,13.93
2019-01-15T12:19:33.897Z,9.43
2019-01-15T12:22:23.365Z,13.90
2019-01-15T12:25:14.289Z,15.03
2019-01-15T12:27:53.685Z,13.90
2019-01-15T12:30:51.188Z,13.20
2019-01-15T12:33:47.312Z,13.50
2019-01-15T12:36:27.404Z,14.10
2019-01-15T12:39:33.165Z,14.70
2019-01-15T12:42:26.612Z,14.83
2019-01-15T12:45:18.418Z,15.53
2019-01-15T12:48:06.877Z,15.93
2019-01-15T12:50:55.780Z,14.60
2019-01-15T12:53:44.716Z,15.50
2019-01-15T12:56:37.781Z,14.77
2019-01-15T12:59:27.276Z,14.87
2019-01-15T13:02:20.336Z,12.60
2019-01-15T13:05:10.121Z,15.00
2019-01-15T13:07:58.877Z,14.20
2019-01-15T13:10:49.018Z,13.33
2019-01-15T13:13:38.080Z,13.70
2019-01-15T13:16:37.144Z,13.93
2019-01-15T13:19:30.151Z,12.50
2019-01-15T13:22:19.244Z,16.93
2019-01-15T13:25:12.527Z,11.47
2019-01-15T13:28:01.484Z,12.90
2019-01-15T13:30:50.557Z,14.13
2019-01-15T13:33:56.062Z,14.87
2019-01-15T13:36:40.557Z,13.33
2019-01-15T13:39:29.373Z,9.73
2019-01-15T13:42:26.357Z,12.30
2019-01-15T13:45:19.340Z,14.13
2019-01-15T13:48:00.204Z,13.97
2019-01-15T13:50:54.377Z,14.60
2019-01-15T13:53:45.176Z,9.27
2019-01-15T13:56:30.748Z,14.13
2019-01-15T13:59:36.284Z,12.73
2019-01-15T14:02:27.580Z,8.03
2019-01-15T14:05:23.806Z,13.50
2019-01-15T14:08:23.076Z,13.03
2019-01-15T14:11:06.210Z,13.70
2019-01-15T14:13:54.904Z,13.03
2019-01-15T14:16:44.245Z,13.80
2019-01-15T14:19:32.048Z,14.23
2019-01-15T14:22:21.423Z,9.50
2019-01-15T14:25:12.736Z,12.40
2019-01-15T14:28:12.322Z,14.20
2019-01-15T14:31:06.527Z,11.40
2019-01-15T14:34:02.721Z,13.73
2019-01-15T14:36:52.946Z,10.77
2019-01-15T14:39:41.533Z,13.20
2019-01-15T14:42:40.966Z,13.17
2019-01-15T14:45:30.439Z,13.47
2019-01-15T14:48:21.621Z,13.40
2019-01-15T14:51:09.132Z,14.63
2019-01-15T14:53:56.206Z,12.40
2019-01-15T14:56:45.168Z,13.63
2019-01-15T14:59:34.066Z,12.90
2019-01-15T15:02:23.239Z,11.47
2019-01-15T15:05:01.053Z,13.70
2019-01-15T15:07:52.278Z,14.33
2019-01-15T15:10:52.255Z,13.00
2019-01-15T15:13:37.041Z,13.57
2019-01-15T15:16:27.196Z,13.50
2019-01-15T15:19:09.618Z,14.20
2019-01-15T15:21:58.563Z,13.70
2019-01-15T15:25:08.252Z,12.00
2019-01-15T15:27:59.459Z,13.80
2019-01-15T15:30:56.632Z,12.77
2019-01-15T15:33:46.859Z,14.63
2019-01-15T15:36:40.136Z,13.40
2019-01-15T15:39:23.982Z,14.13
2019-01-15T15:42:20.082Z,12.70
2019-01-15T15:45:07.084Z,13.70
2019-01-15T15:47:58.972Z,13.67
2019-01-15T15:50:59.087Z,12.73
2019-01-15T15:53:48.184Z,13.23
2019-01-15T15:56:37.389Z,12.93
2019-01-15T15:59:26.266Z,11.23
2019-01-15T16:02:24.087Z,12.93
2019-01-15T16:05:18.497Z,13.33
2019-01-15T16:08:11.722Z,12.57
2019-01-15T16:11:12.597Z,12.90
2019-01-15T16:13:58.274Z,12.23
2019-01-15T16:16:47.997Z,12.33
2019-01-15T16:19:35.928Z,13.10
2019-01-15T16:22:24.846Z,13.73
2019-01-15T16:25:27.364Z,10.23
2019-01-15T16:28:17.552Z,14.13
2019-01-15T16:31:10.937Z,14.07
2019-01-15T16:33:57.395Z,12.73
2019-01-15T16:36:46.245Z,13.27
2019-01-15T16:39:36.383Z,14.47
2019-01-15T16:42:35.282Z,13.57
2019-01-15T16:45:26.037Z,14.37
2019-01-15T16:48:05.898Z,14.93
2019-01-15T16:50:45.550Z,14.73
2019-01-15T16:53:42.013Z,15.10
2019-01-15T16:56:44.394Z,14.17
2019-01-15T16:59:46.886Z,13.97
2019-01-15T17:02:36.004Z,11.97
2019-01-15T17:05:29.116Z,15.30
2019-01-15T17:08:12.906Z,14.43
2019-01-15T17:11:00.681Z,16.03
2019-01-15T17:14:03.078Z,15.57
2019-01-15T17:16:51.760Z,16.60
2019-01-15T17:19:39.584Z,16.23
2019-01-15T17:22:37.701Z,14.47
2019-01-15T17:25:26.872Z,16.50
2019-01-15T17:28:08.888Z,17.13
2019-01-15T17:30:58.122Z,16.27
2019-01-15T17:33:47.295Z,14.60
2019-01-15T17:36:49.617Z,15.00
2019-01-15T17:39:42.822Z,17.70
2019-01-15T17:42:51.399Z,16.67
2019-01-15T17:45:40.589Z,16.43
2019-01-15T17:48:32.093Z,15.50
2019-01-15T17:51:37.450Z,13.47
2019-01-15T17:54:27.748Z,14.77
2019-01-15T17:57:31.225Z,16.27
2019-01-15T18:00:40.015Z,17.13
2019-01-15T18:03:30.354Z,12.20
2019-01-15T18:06:23.404Z,16.13
2019-01-15T18:09:13.679Z,15.50
2019-01-15T18:12:02.834Z,16.00
2019-01-15T18:14:59.382Z,15.60
2019-01-15T18:17:55.407Z,17.40
2019-01-15T18:20:38.718Z,11.30
2019-01-15T18:23:25.183Z,16.50
2019-01-15T18:26:21.754Z,14.77
2019-01-15T18:29:11.004Z,15.97
2019-01-15T18:32:00.184Z,17.23
2019-01-15T18:34:59.267Z,17.13
2019-01-15T18:38:00.747Z,14.20
2019-01-15T18:41:09.224Z,16.00
2019-01-15T18:44:08.800Z,17.40
2019-01-15T18:46:57.620Z,17.07
2019-01-15T18:49:47.763Z,15.17
2019-01-15T18:52:56.420Z,14.87
2019-01-15T18:55:40.373Z,14.33
2019-01-15T18:58:29.412Z,18.30
2019-01-15T19:01:37.879Z,17.63
2019-01-15T19:04:30.734Z,17.33
2019-01-15T19:07:23.720Z,17.40
2019-01-15T19:10:20.007Z,16.33
2019-01-15T19:13:16.206Z,16.83
2019-01-15T19:16:05.548Z,17.47
2019-01-15T19:18:54.893Z,16.50
2019-01-15T19:22:03.209Z,17.10
2019-01-15T19:25:11.662Z,18.03
2019-01-15T19:28:01.477Z,18.67
2019-01-15T19:30:52.846Z,18.63
2019-01-15T19:33:42.040Z,17.47
2019-01-15T19:36:32.243Z,17.77
2019-01-15T19:39:24.337Z,14.87
2019-01-15T19:42:32.978Z,16.43
2019-01-15T19:45:32.878Z,15.40
2019-01-15T19:48:23.269Z,14.87
2019-01-15T19:51:07.061Z,13.53
2019-01-15T19:54:00.218Z,16.63
2019-01-15T19:56:52.454Z,15.53
2019-01-15T19:59:59.626Z,16.87
2019-01-15T20:03:03.693Z,19.07
2019-01-15T20:06:00.089Z,16.70
2019-01-15T20:08:49.519Z,16.10
2019-01-15T20:11:47.511Z,18.10
2019-01-15T20:14:50.559Z,16.73
2019-01-15T20:17:57.275Z,17.87
2019-01-15T20:20:52.015Z,17.73
2019-01-15T20:23:34.833Z,16.97
2019-01-15T20:26:43.429Z,17.97
2019-01-15T20:29:42.641Z,14.67
2019-01-15T20:32:35.897Z,16.70
2019-01-15T20:35:45.136Z,17.50
2019-01-15T20:38:35.272Z,17.67
2019-01-15T20:41:34.771Z,17.20
2019-01-15T20:44:15.242Z,18.50
2019-01-15T20:47:04.211Z,17.93
2019-01-15T20:49:53.302Z,15.67
2019-01-15T20:52:42.150Z,18.83
2019-01-15T20:55:24.252Z,17.90
2019-01-15T20:58:13.835Z,17.03
2019-01-15T21:01:09.253Z,16.97
2019-01-15T21:04:15.017Z,17.60
2019-01-15T21:06:59.848Z,15.30
2019-01-15T21:09:56.385Z,15.57
2019-01-15T21:12:49.480Z,12.23
2019-01-15T21:15:37.192Z,16.53
2019-01-15T21:18:26.340Z,14.97
2019-01-15T21:21:28.947Z,14.27
2019-01-15T21:24:34.262Z,13.93
2019-01-15T21:27:14.681Z,18.00
2019-01-15T21:29:54.211Z,18.40
2019-01-15T21:32:44.452Z,16.53
2019-01-15T21:35:38.007Z,16.70
2019-01-15T21:38:28.186Z,17.47
2019-01-15T21:41:15.303Z,16.27
2019-01-15T21:44:23.589Z,15.93
2019-01-15T21:47:10.341Z,16.63
2019-01-15T21:49:59.365Z,16.90
2019-01-15T21:52:47.627Z,16.93
2019-01-15T21:55:39.942Z,17.10
2019-01-15T21:58:36.331Z,14.53
2019-01-15T22:01:32.867Z,16.33
2019-01-15T22:04:31.898Z,13.67
2019-01-15T22:07:20.635Z,14.40
2019-01-15T22:10:20.288Z,15.70
2019-01-15T22:13:06.916Z,15.47
2019-01-15T22:16:02.739Z,15.33
2019-01-15T22:19:14.512Z,15.63
2019-01-15T22:22:46.531Z,14.80
2019-01-15T22:26:10.646Z,13.97
2019-01-15T22:29:10.268Z,12.57
2019-01-15T22:32:22.150Z,15.03
2019-01-15T22:35:20.962Z,12.10
2019-01-15T22:38:55.245Z,15.53
2019-01-15T22:42:20.576Z,14.10
2019-01-15T22:45:30.717Z,11.77
2019-01-15T22:48:27.752Z,12.23
2019-01-15T22:54:52.789Z,9.00
2019-01-15T22:57:53.766Z,12.03
2019-01-15T23:00:58.521Z,10.80
2019-01-15T23:03:56.898Z,13.30
2019-01-15T23:06:48.611Z,13.10
2019-01-15T23:09:46.260Z,12.50
2019-01-15T23:12:42.660Z,13.80
2019-01-15T23:15:36.687Z,11.80
2019-01-15T23:18:37.640Z,13.30
2019-01-15T23:22:04.751Z,14.13
2019-01-15T23:25:02.852Z,13.90
2019-01-15T23:28:19.687Z,14.20
2019-01-15T23:31:22.889Z,14.30
2019-01-15T23:34:30.965Z,14.50
2019-01-15T23:37:25.465Z,11.63
2019-01-15T23:40:43.158Z,13.87
2019-01-15T23:43:38.671Z,13.87
2019-01-15T23:46:38.042Z,13.50
2019-01-15T23:49:40.397Z,14.03
2019-01-15T23:52:45.230Z,13.53
2019-01-15T23:55:46.907Z,13.30
2019-01-15T23:58:48.206Z,13.03
